Terminal Aerodrome Forecast
Issued by NWS

Home | Current Version | Previous Version | Text Only | Print | Product List | Glossary On
Versions: 1 2 3 4 5 6 7 8 9 10 11 12 13 14 15 16 17 18
000
FTUS43 KJKL 191004 AAB
TAFSME
TAF AMD
KSME 191004Z 1910/2006 VRB03KT 1/2SM FG BKN003
     FM191300 VRB03KT P6SM SCT040
     FM191800 VRB04KT P6SM VCSH BKN050
     FM200000 VRB03KT P6SM SCT060=

USA.gov is the U.S. government's official web portal to all federal, state and local government web resources and services.